Bladensburg, Iowa
Current Conditions -  °F | °C
As of 9:58 PM on Sunday 23 Nov 2014 (Local Time) from KOTM Reporting Station
Light Rain Light Rain  
Wind Chill: 29°   Ceiling: 800
Heat Index: 40°   Visibility: 8mi
Dew Point: 36°   Wind: 29mph
Humidity: 86%   Direction: 320°NW
Pressure: 29.3"   Gusts: 40mph
Location:  41.0803°N, 92.3054°W
Report Text: KOTM 240358Z AUTO 32025G35KT 8SM -RA BKN008 OVC014 04/02 A2930 RMK AO2 PK WND 33035/0355 CIG 007V012 P0000 T00440022
Loading
Personal Weather Stations






























Interactive Weather Map New forecast layout! Learn more

10-Day Weather Forecast

Advertisements
Track Severe Weather on mobile